الصفحة الرئيسية
METAR-TAF:

METAR-TAF

مطار :

أكرا, غانا

مطار كوتوكا الدولي

دائرة عرض: 05-36N, خط طول: 000-10W, ارتفاع: 68 متر

مراقبة الطقس الحالي

تاريخ ووقت الإصدار 1ساعة و 15 دقيقة قبل الساعة 10:00UTC
ريح 8 عقدة من الغرب
درجة الحرارة 28°درجة مئوية
الرطوبة 79%
ضغط 1012 hPa
الرؤية: 3000 متر
العجاج

METAR: DGAA 171000Z 26008KT 3000 HZ NSC 28/24 Q1012 NOSIG

زمن: 11:15 (11:15 UTC)

توقعات

تاريخ ووقت الإصدار 6ساعات و 15 دقيقة قبل الساعة 05:00UTC
التوقعات صالحة من17 الساعة 06 UTC إلى 18 الساعة 12 UTC
ريح 6 عقدة من الغرب
الرؤية: 4000 متر
غيوم قليلة على ارتفاع 1100 قدم
العجاج
مؤقت
من 17 الساعة 06 UTC إلى 17 الساعة 10 UTC
الرؤية: 3000 متر
غشاء
أصبح
من 17 الساعة 11 UTC إلى 17 الساعة 13 UTC
ريح 10 عقدة من الجنوب
مؤقت
من 17 الساعة 17 UTC إلى 17 الساعة 21 UTC
الرؤية: 5000 متر
غيوم متفرقة على ارتفاع 1700 قدم
غشاء
من 18 الساعة 0000 UTC
الرؤية: 8000 متر

TAF: DGAA 170500Z 1706/1812 27006KT 4000 HZ FEW011 TEMPO 1706/1710 3000 BR BECMG 1711/1713 18010KT TEMPO 1717/1721 5000 BR SCT017 FM180000 V23005KT 8000 NSC

أرصاد الطقس والتوقعات من أكثر من 4000 مطار (تقارير الطقس للمطار METAR والتنبؤ بالطقس بالمطارTAF).

المحطات المتاحة هي النقط الصفراء والحمراء على الخريطة.

حرك المؤشر فوق النقطة لمعرفة اسم المحطة.

ثم انقر لمعرفة أرصاد وتوقعات الطقس.

لتغيير الخارطة: اضغط على الأزرار الخضراء مع رمز الصليب الأسود للتكبير. على الزر الأخضر مع شرطة للتصغير، أو على الأسهم الخضراء للخرائط المجاورة.


METAR-TAF: